Time;durP1;ratioP1;P1;durP2;ratioP2;P2;SDS_P1;SDS_P2;PMS_P1;PMS_P2;Temp;Humidity;BMP_temperature;BMP_pressure;BME280_temperature;BME280_humidity;BME280_pressure;Samples;Min_cycle;Max_cycle;Signal;HPM_P1;HPM_P2
2023/04/27 00:00:18;;;;;;;;;;;;;;;4.48;73.61;102038.28;5064342;28;20005;-57
2023/04/27 00:02:43;;;;;;;;;;;;;;;4.43;73.59;102043.84;5061748;28;19978;-57
2023/04/27 00:05:10;;;;;;;;;;;;;;;4.38;73.65;102053.84;5061917;28;20378;-58
2023/04/27 00:07:35;;;;;;;;;;;;;;;4.30;73.58;102053.47;5067460;28;19923;-56
2023/04/27 00:10:01;;;;;;;;;;;;;;;4.26;73.67;102047.56;5067978;28;19916;-58
2023/04/27 00:12:26;;;;;;;;;;;;;;;4.25;73.56;102042.41;5063987;28;19924;-58
2023/04/27 00:14:51;;;;;;;;;;;;;;;4.25;73.74;102050.31;5061803;28;19917;-57
2023/04/27 00:17:16;;;;;;;;;;;;;;;4.22;73.75;102056.59;5063602;28;20023;-57
2023/04/27 00:19:41;;;;;;;;;;;;;;;4.22;73.56;102047.88;5068558;28;19965;-57
2023/04/27 00:22:07;;;;;;;;;;;;;;;4.23;73.79;102052.19;5065689;28;19921;-56
2023/04/27 00:24:33;;;;;;;;;;;;;;;4.22;74.01;102050.50;5059249;28;19952;-58
2023/04/27 00:26:58;;;;;;;;;;;;;;;4.21;74.03;102048.81;5063665;28;19916;-56
2023/04/27 00:29:23;;;;;;;;;;;;;;;4.19;73.93;102045.44;5064674;28;19924;-57
2023/04/27 00:31:48;;;;;;;;;;;;;;;4.19;73.91;102046.28;5065553;28;20406;-58
2023/04/27 00:34:13;;;;;;;;;;;;;;;4.18;74.24;102049.88;5060708;28;19920;-56
2023/04/27 00:36:38;;;;;;;;;;;;;;;4.15;74.29;102051.84;5067438;28;20357;-55
2023/04/27 00:39:05;;;;;;;;;;;;;;;4.13;74.35;102053.75;5066922;28;19928;-58
2023/04/27 00:41:30;;;;;;;;;;;;;;;4.13;74.30;102051.94;5072735;28;20473;-57
2023/04/27 00:43:55;;;;;;;;;;;;;;;4.13;74.66;102049.31;5066599;28;20428;-57
2023/04/27 00:46:20;;;;;;;;;;;;;;;4.13;74.64;102046.69;5064121;28;20047;-58
2023/04/27 00:48:46;;;;;;;;;;;;;;;4.12;74.71;102050.28;5059395;28;19996;-59
2023/04/27 00:51:11;;;;;;;;;;;;;;;4.13;74.64;102053.75;5061366;28;20019;-57
2023/04/27 00:53:37;;;;;;;;;;;;;;;4.12;74.75;102045.00;5056093;28;19924;-57
2023/04/27 00:56:06;;;;;;;;;;;;;;;4.11;74.86;102037.22;5062722;28;19917;-57
2023/04/27 00:58:31;;;;;;;;;;;;;;;4.08;74.80;102037.44;5062884;28;20313;-57
2023/04/27 01:00:57;;;;;;;;;;;;;;;4.02;75.21;102042.13;5059166;28;20407;-57
2023/04/27 01:03:22;;;;;;;;;;;;;;;4.00;75.27;102046.63;5057687;28;20385;-58
2023/04/27 01:05:47;;;;;;;;;;;;;;;3.97;75.29;102041.56;5062933;28;19916;-57
2023/04/27 01:08:12;;;;;;;;;;;;;;;3.95;75.58;102043.47;5051701;28;19927;-57
2023/04/27 01:10:38;;;;;;;;;;;;;;;3.96;75.88;102046.94;5059220;28;19920;-58
2023/04/27 01:13:03;;;;;;;;;;;;;;;3.95;75.94;102038.19;5063569;28;19924;-57
2023/04/27 01:15:28;;;;;;;;;;;;;;;3.97;76.27;102046.81;5060901;28;19924;-58
2023/04/27 01:18:00;;;;;;;;;;;;;;;3.98;76.40;102042.41;5057106;28;20003;-57
2023/04/27 01:20:29;;;;;;;;;;;;;;;4.01;76.39;102036.97;5056564;28;19913;-57
2023/04/27 01:22:55;;;;;;;;;;;;;;;4.02;76.75;102034.22;5057444;28;19995;-57
2023/04/27 01:25:20;;;;;;;;;;;;;;;4.03;76.84;102042.97;5053799;28;19912;-56
2023/04/27 01:27:45;;;;;;;;;;;;;;;4.00;76.97;102036.13;5062677;28;20004;-58
2023/04/27 01:30:10;;;;;;;;;;;;;;;4.00;76.99;102045.78;5055538;28;19929;-58
2023/04/27 01:32:36;;;;;;;;;;;;;;;3.99;76.91;102049.34;5063934;28;20000;-58
2023/04/27 01:35:01;;;;;;;;;;;;;;;4.00;76.88;102046.63;5058408;28;19920;-57
2023/04/27 01:37:27;;;;;;;;;;;;;;;4.01;76.91;102045.69;5058339;28;20542;-57
2023/04/27 01:39:52;;;;;;;;;;;;;;;4.01;76.69;102042.22;5059484;28;19916;-58
2023/04/27 01:42:17;;;;;;;;;;;;;;;4.00;76.85;102035.28;5060491;28;19931;-58
2023/04/27 01:44:42;;;;;;;;;;;;;;;3.98;76.55;102043.25;5056744;28;19924;-58
2023/04/27 01:47:07;;;;;;;;;;;;;;;3.97;76.79;102036.31;5067059;28;20423;-58
2023/04/27 01:49:32;;;;;;;;;;;;;;;3.95;77.22;102030.31;5057678;28;19924;-58
2023/04/27 01:51:58;;;;;;;;;;;;;;;3.95;77.03;102034.72;5059390;28;20342;-57
2023/04/27 01:54:23;;;;;;;;;;;;;;;3.93;77.13;102028.72;5054506;28;19924;-57
2023/04/27 01:56:48;;;;;;;;;;;;;;;3.92;76.91;102022.63;5056627;28;19920;-58
2023/04/27 01:59:13;;;;;;;;;;;;;;;3.86;76.96;102027.44;5059225;28;20616;-54
2023/04/27 02:01:38;;;;;;;;;;;;;;;3.80;76.69;102027.84;5055504;28;19931;-58
2023/04/27 02:04:04;;;;;;;;;;;;;;;3.79;76.59;102036.66;5057010;28;20343;-57
2023/04/27 02:06:30;;;;;;;;;;;;;;;3.78;76.92;102021.84;5057252;28;19920;-58
2023/04/27 02:08:55;;;;;;;;;;;;;;;3.74;76.72;102022.00;5057977;28;19920;-59
2023/04/27 02:11:20;;;;;;;;;;;;;;;3.71;76.70;102019.59;5053649;28;19931;-57
2023/04/27 02:13:45;;;;;;;;;;;;;;;3.68;76.91;102016.31;5060501;28;20301;-58
2023/04/27 02:16:10;;;;;;;;;;;;;;;3.67;76.52;102012.84;5061793;28;19943;-58
2023/04/27 02:18:37;;;;;;;;;;;;;;;3.67;76.71;102019.88;5063382;28;19917;-57
2023/04/27 02:21:06;;;;;;;;;;;;;;;3.67;76.86;102012.00;5066101;28;20435;-57
2023/04/27 02:23:33;;;;;;;;;;;;;;;3.65;76.92;102008.63;5061501;28;19955;-58
2023/04/27 02:25:58;;;;;;;;;;;;;;;3.65;76.93;102008.63;5062128;28;19919;-58
2023/04/27 02:28:23;;;;;;;;;;;;;;;3.65;76.93;102019.13;5064741;28;20298;-58
2023/04/27 02:30:49;;;;;;;;;;;;;;;3.67;77.07;102014.63;5057923;28;19921;-57
2023/04/27 02:33:14;;;;;;;;;;;;;;;3.67;76.99;102001.50;5056477;28;19919;-57
2023/04/27 02:35:39;;;;;;;;;;;;;;;3.67;76.98;101998.84;5060733;28;20843;-58
2023/04/27 02:38:05;;;;;;;;;;;;;;;3.66;77.15;101997.19;5058388;28;19989;-57
2023/04/27 02:40:30;;;;;;;;;;;;;;;3.62;77.23;101993.91;5065265;28;20003;-57
2023/04/27 02:42:56;;;;;;;;;;;;;;;3.61;77.01;101999.25;5065640;28;20015;-58
2023/04/27 02:45:21;;;;;;;;;;;;;;;3.61;77.05;101994.84;5064761;28;19924;-56
2023/04/27 02:47:46;;;;;;;;;;;;;;;3.59;77.29;101991.47;5070894;28;19912;-58
2023/04/27 02:50:12;;;;;;;;;;;;;;;3.57;77.33;101995.97;5065540;28;19924;-57
2023/04/27 02:52:37;;;;;;;;;;;;;;;3.57;77.33;102006.50;5067664;28;19920;-58
2023/04/27 02:55:02;;;;;;;;;;;;;;;3.56;77.38;102006.59;5070532;28;19973;-57
2023/04/27 02:57:28;;;;;;;;;;;;;;;3.54;77.48;102013.72;5070006;28;19912;-57
2023/04/27 02:59:53;;;;;;;;;;;;;;;3.54;77.41;101997.97;5069602;28;20500;-58
2023/04/27 03:02:18;;;;;;;;;;;;;;;3.55;76.95;102000.50;5070742;28;20487;-58
2023/04/27 03:04:43;;;;;;;;;;;;;;;3.54;77.30;101997.97;5066696;28;19913;-57
2023/04/27 03:07:09;;;;;;;;;;;;;;;3.53;76.86;102002.38;5061768;28;20467;-57
2023/04/27 03:09:34;;;;;;;;;;;;;;;3.51;76.97;102000.78;5065385;28;19985;-57
2023/04/27 03:11:59;;;;;;;;;;;;;;;3.50;76.82;102005.19;5058925;28;19924;-57
2023/04/27 03:14:24;;;;;;;;;;;;;;;3.49;76.85;102002.66;5061193;28;19923;-58
2023/04/27 03:16:49;;;;;;;;;;;;;;;3.48;76.88;102006.25;5056031;28;19923;-57
2023/04/27 03:19:15;;;;;;;;;;;;;;;3.46;77.40;102002.84;5056042;28;19923;-57
2023/04/27 03:21:40;;;;;;;;;;;;;;;3.46;77.36;102011.56;5065355;28;19916;-56
2023/04/27 03:24:05;;;;;;;;;;;;;;;3.43;77.49;102006.50;5056721;28;19916;-57
2023/04/27 03:26:31;;;;;;;;;;;;;;;3.41;77.51;102003.97;5069054;28;20007;-57
2023/04/27 03:28:56;;;;;;;;;;;;;;;3.41;77.39;102006.59;5062398;28;19971;-58
2023/04/27 03:31:21;;;;;;;;;;;;;;;3.41;77.17;102013.63;5058831;28;19995;-58
2023/04/27 03:33:46;;;;;;;;;;;;;;;3.37;77.43;102015.59;5061956;28;19916;-58
2023/04/27 03:36:11;;;;;;;;;;;;;;;3.33;77.41;102032.50;5056345;28;19956;-57
2023/04/27 03:38:37;;;;;;;;;;;;;;;3.30;77.19;102026.59;5065288;28;20474;-56
2023/04/27 03:41:02;;;;;;;;;;;;;;;3.28;77.15;102029.31;5059782;28;19927;-58
2023/04/27 03:43:27;;;;;;;;;;;;;;;3.26;77.18;102031.19;5063951;28;19932;-57
2023/04/27 03:45:53;;;;;;;;;;;;;;;3.25;77.14;102026.88;5063968;28;19916;-57
2023/04/27 03:48:18;;;;;;;;;;;;;;;3.23;77.19;102026.13;5062961;28;19991;-57
2023/04/27 03:50:43;;;;;;;;;;;;;;;3.22;77.01;102028.84;5061937;28;19928;-57
2023/04/27 03:53:09;;;;;;;;;;;;;;;3.20;77.00;102034.19;5057515;28;19916;-58
2023/04/27 03:55:38;;;;;;;;;;;;;;;3.21;77.12;102032.41;5058154;28;20379;-57
2023/04/27 03:58:03;;;;;;;;;;;;;;;3.22;77.00;102037.56;5063230;28;19958;-57
2023/04/27 04:24:51;;;;;;;;;;;;;;;3.06;77.78;102037.63;5060094;28;22147;-56
2023/04/27 04:27:16;;;;;;;;;;;;;;;3.03;77.74;102043.06;5056950;28;19924;-57
2023/04/27 04:29:41;;;;;;;;;;;;;;;3.02;78.08;102045.78;5062286;28;19969;-58
2023/04/27 04:32:08;;;;;;;;;;;;;;;3.00;78.33;102048.50;5062403;28;20059;-57
2023/04/27 04:34:33;;;;;;;;;;;;;;;3.01;78.55;102046.72;5069208;28;19971;-57
2023/04/27 04:36:58;;;;;;;;;;;;;;;3.00;78.36;102045.03;5066088;28;19960;-58
2023/04/27 04:39:25;;;;;;;;;;;;;;;3.01;78.68;102049.34;5068326;28;19916;-57
2023/04/27 04:41:51;;;;;;;;;;;;;;;3.01;78.61;102044.94;5066306;28;19916;-57
2023/04/27 04:44:16;;;;;;;;;;;;;;;3.02;78.75;102051.88;5069182;28;19919;-56
2023/04/27 04:46:42;;;;;;;;;;;;;;;3.02;78.99;102059.75;5072983;28;19932;-57
2023/04/27 04:49:07;;;;;;;;;;;;;;;3.01;78.94;102058.06;5066427;28;19928;-57
2023/04/27 04:51:32;;;;;;;;;;;;;;;3.03;78.76;102057.97;5052278;28;19937;-57
2023/04/27 04:53:58;;;;;;;;;;;;;;;3.06;78.52;102058.63;5068323;28;19947;-57
2023/04/27 04:56:23;;;;;;;;;;;;;;;3.10;78.15;102069.78;5061280;28;20290;-56
2023/04/27 04:58:48;;;;;;;;;;;;;;;3.14;77.82;102063.41;5068615;28;20495;-57
2023/04/27 05:01:13;;;;;;;;;;;;;;;3.18;78.06;102064.94;5065041;28;19929;-58
2023/04/27 05:03:38;;;;;;;;;;;;;;;3.20;78.50;102063.06;5065763;28;19960;-57
2023/04/27 05:06:04;;;;;;;;;;;;;;;3.24;78.30;102061.94;5062524;28;19924;-58
2023/04/27 05:08:29;;;;;;;;;;;;;;;3.28;78.04;102062.59;5067802;28;19912;-58
2023/04/27 05:10:54;;;;;;;;;;;;;;;3.32;78.40;102071.97;5060665;28;19920;-57
2023/04/27 05:13:20;;;;;;;;;;;;;;;3.36;78.64;102065.59;5064717;28;19973;-57
2023/04/27 05:15:45;;;;;;;;;;;;;;;3.41;78.81;102066.13;5062891;28;20360;-56
2023/04/27 05:18:10;;;;;;;;;;;;;;;3.43;78.84;102062.47;5061482;28;19912;-57
2023/04/27 05:20:36;;;;;;;;;;;;;;;3.48;78.23;102064.00;5064964;28;19952;-56
2023/04/27 05:23:02;;;;;;;;;;;;;;;3.51;78.96;102062.03;5052922;28;20302;-57
2023/04/27 05:25:31;;;;;;;;;;;;;;;3.57;79.14;102068.69;5059342;28;19921;-57
2023/04/27 05:27:56;;;;;;;;;;;;;;;3.61;79.51;102064.91;5058934;28;20374;-56
2023/04/27 05:30:21;;;;;;;;;;;;;;;3.69;79.68;102062.66;5058572;28;19955;-57
2023/04/27 05:32:46;;;;;;;;;;;;;;;3.77;79.49;102063.03;5059755;28;19917;-57
2023/04/27 05:35:11;;;;;;;;;;;;;;;3.84;79.50;102061.69;5063479;28;19920;-56
2023/04/27 05:37:37;;;;;;;;;;;;;;;3.92;78.96;102062.06;5060411;28;19923;-57
2023/04/27 05:40:04;;;;;;;;;;;;;;;4.01;79.09;102069.34;5055566;28;19917;-57
2023/04/27 05:42:29;;;;;;;;;;;;;;;4.10;79.24;102073.19;5059911;28;19917;-57
2023/04/27 05:44:55;;;;;;;;;;;;;;;4.18;79.21;102072.69;5060096;28;19923;-56
2023/04/27 05:47:20;;;;;;;;;;;;;;;4.26;79.48;102065.13;5064421;28;20520;-57
2023/04/27 05:49:48;;;;;;;;;;;;;;;4.33;78.66;102069.03;5059116;28;20366;-57
2023/04/27 05:52:14;;;;;;;;;;;;;;;4.39;78.29;102073.94;5057525;28;19947;-56
2023/04/27 05:54:39;;;;;;;;;;;;;;;4.42;78.29;102070.25;5060021;28;19920;-57
2023/04/27 05:57:04;;;;;;;;;;;;;;;4.47;78.44;102068.16;5055874;28;20307;-56
2023/04/27 05:59:30;;;;;;;;;;;;;;;4.55;78.67;102063.22;5064632;28;19999;-57
2023/04/27 06:01:55;;;;;;;;;;;;;;;4.62;78.55;102070.59;5060511;28;20410;-56
2023/04/27 06:04:20;;;;;;;;;;;;;;;4.71;78.98;102068.31;5061087;28;19920;-57
2023/04/27 06:06:46;;;;;;;;;;;;;;;4.83;78.83;102072.75;5057731;28;19963;-55
2023/04/27 06:09:11;;;;;;;;;;;;;;;4.94;79.08;102073.75;5056229;28;19920;-56
2023/04/27 06:11:36;;;;;;;;;;;;;;;5.04;77.69;102070.47;5057765;28;20370;-57
2023/04/27 06:14:01;;;;;;;;;;;;;;;5.11;77.86;102072.56;5056021;28;19920;-56
2023/04/27 06:16:26;;;;;;;;;;;;;;;5.18;77.23;102073.00;5055945;28;20396;-57
2023/04/27 06:18:52;;;;;;;;;;;;;;;5.22;76.73;102070.06;5063782;28;20287;-56
2023/04/27 06:21:17;;;;;;;;;;;;;;;5.31;75.83;102067.72;5054778;28;19955;-58
2023/04/27 06:23:42;;;;;;;;;;;;;;;5.35;75.76;102070.03;5054647;28;20393;-58
2023/04/27 06:26:07;;;;;;;;;;;;;;;5.48;76.26;102075.28;5063995;28;19920;-60
2023/04/27 06:28:32;;;;;;;;;;;;;;;5.64;76.27;102070.63;5061527;28;20401;-59
2023/04/27 06:30:58;;;;;;;;;;;;;;;5.83;76.18;102075.47;5062335;28;19929;-60
2023/04/27 06:33:23;;;;;;;;;;;;;;;5.97;75.92;102069.22;5064525;28;20517;-68
2023/04/27 06:35:48;;;;;;;;;;;;;;;6.08;75.68;102085.13;5066979;28;20011;-66
2023/04/27 06:38:13;;;;;;;;;;;;;;;6.17;74.47;102079.16;5065818;28;20381;-67
2023/04/27 06:40:39;;;;;;;;;;;;;;;6.26;74.21;102067.94;5070380;28;19955;-74
2023/04/27 06:43:04;;;;;;;;;;;;;;;6.33;74.08;102076.22;5069557;28;19916;-76
2023/04/27 06:45:29;;;;;;;;;;;;;;;6.42;73.50;102073.78;5067985;28;19923;-77
2023/04/27 06:47:55;;;;;;;;;;;;;;;6.58;73.02;102064.72;5075500;28;20333;-77
2023/04/27 06:50:20;;;;;;;;;;;;;;;6.67;73.11;102066.69;5069746;28;19920;-77
2023/04/27 06:52:45;;;;;;;;;;;;;;;6.72;72.49;102070.66;5065701;28;19924;-77
2023/04/27 06:55:10;;;;;;;;;;;;;;;6.84;72.33;102069.72;5067349;28;20368;-60
2023/04/27 06:57:35;;;;;;;;;;;;;;;6.95;72.54;102062.81;5066551;28;19924;-66
2023/04/27 07:00:01;;;;;;;;;;;;;;;7.01;72.70;102071.09;5065494;28;19917;-61
2023/04/27 07:02:26;;;;;;;;;;;;;;;7.11;72.31;102068.56;5064088;28;20336;-62
2023/04/27 07:04:51;;;;;;;;;;;;;;;7.16;71.79;102069.06;5070031;28;19920;-64
2023/04/27 07:07:17;;;;;;;;;;;;;;;7.23;71.33;102067.66;5065029;28;19920;-74
2023/04/27 07:09:42;;;;;;;;;;;;;;;7.25;70.99;102072.81;5065300;28;19922;-76
2023/04/27 07:12:07;;;;;;;;;;;;;;;7.28;70.78;102072.56;5066187;28;19977;-74
2023/04/27 07:14:33;;;;;;;;;;;;;;;7.39;70.98;102067.28;5059896;28;19947;-75
2023/04/27 07:16:58;;;;;;;;;;;;;;;7.45;70.34;102072.06;5066427;28;19998;-77
2023/04/27 07:19:23;;;;;;;;;;;;;;;7.48;70.56;102071.84;5064173;28;19916;-75
2023/04/27 07:21:49;;;;;;;;;;;;;;;7.49;69.57;102078.81;5061910;28;19920;-66
2023/04/27 07:24:14;;;;;;;;;;;;;;;7.47;69.13;102070.16;5059765;28;20500;-69
2023/04/27 07:26:40;;;;;;;;;;;;;;;7.48;69.64;102077.13;5061019;28;19917;-67
2023/04/27 07:29:05;;;;;;;;;;;;;;;7.52;69.39;102068.03;5066349;28;19951;-68
2023/04/27 07:31:31;;;;;;;;;;;;;;;7.55;68.36;102081.00;5058383;28;19943;-69
2023/04/27 07:33:59;;;;;;;;;;;;;;;7.61;68.16;102072.56;5057050;28;19925;-69
2023/04/27 07:36:25;;;;;;;;;;;;;;;7.67;68.15;102069.44;5062486;28;20003;-69
2023/04/27 07:38:51;;;;;;;;;;;;;;;7.75;67.69;102058.25;5061706;28;20600;-69
2023/04/27 07:41:16;;;;;;;;;;;;;;;7.90;68.11;102064.13;5053349;28;20030;-70
2023/04/27 07:43:42;;;;;;;;;;;;;;;8.00;68.27;102057.97;5060829;28;20515;-69
2023/04/27 07:46:07;;;;;;;;;;;;;;;8.09;68.04;102066.94;5060874;28;19921;-69
2023/04/27 07:48:32;;;;;;;;;;;;;;;8.16;68.13;102060.22;5066907;28;19919;-69
2023/04/27 07:50:57;;;;;;;;;;;;;;;8.23;67.65;102066.69;5057332;28;19963;-69
2023/04/27 07:53:23;;;;;;;;;;;;;;;8.29;67.21;102074.13;5059643;28;20017;-69
2023/04/27 07:55:48;;;;;;;;;;;;;;;8.36;66.55;102069.19;5062062;28;20014;-70
2023/04/27 07:58:13;;;;;;;;;;;;;;;8.44;66.57;102073.88;5070585;28;20342;-69
2023/04/27 08:00:38;;;;;;;;;;;;;;;8.50;66.66;102065.41;5077305;28;19919;-68
2023/04/27 08:03:04;;;;;;;;;;;;;;;8.47;66.59;102069.16;5060720;28;19916;-68
2023/04/27 08:05:29;;;;;;;;;;;;;;;8.48;66.40;102064.72;5067560;28;19964;-70
2023/04/27 08:07:54;;;;;;;;;;;;;;;8.50;66.55;102060.13;5062244;28;19982;-70
2023/04/27 08:10:20;;;;;;;;;;;;;;;8.54;66.03;102062.38;5062299;28;19924;-69
2023/04/27 08:12:45;;;;;;;;;;;;;;;8.67;65.72;102064.84;5063101;28;19917;-69
2023/04/27 08:15:10;;;;;;;;;;;;;;;8.71;65.43;102065.44;5063366;28;19963;-69
2023/04/27 08:17:37;;;;;;;;;;;;;;;8.73;65.44;102067.00;5065986;28;19916;-69
2023/04/27 08:20:03;;;;;;;;;;;;;;;8.76;65.21;102071.19;5063831;28;20347;-69
2023/04/27 08:22:28;;;;;;;;;;;;;;;8.76;64.89;102073.84;5064266;28;20382;-69
2023/04/27 08:24:53;;;;;;;;;;;;;;;8.76;64.98;102068.53;5059371;28;19943;-69
2023/04/27 08:27:18;;;;;;;;;;;;;;;8.76;65.28;102073.84;5058386;28;19920;-68
2023/04/27 08:29:44;;;;;;;;;;;;;;;8.81;64.63;102067.19;5065312;28;20443;-68
2023/04/27 08:32:10;;;;;;;;;;;;;;;8.84;64.39;102058.13;5067948;28;20007;-68
2023/04/27 08:34:35;;;;;;;;;;;;;;;8.89;64.81;102061.22;5066741;28;20007;-68
2023/04/27 08:37:02;;;;;;;;;;;;;;;8.97;63.90;102053.50;5062997;28;19916;-70
2023/04/27 08:39:27;;;;;;;;;;;;;;;9.15;64.02;102038.66;5058324;28;19927;-69
2023/04/27 08:41:52;;;;;;;;;;;;;;;9.27;63.99;102047.38;5062632;28;20015;-68
2023/04/27 08:44:18;;;;;;;;;;;;;;;9.36;64.04;102049.22;5060040;28;19975;-69
2023/04/27 08:46:43;;;;;;;;;;;;;;;9.43;63.44;102042.41;5068065;28;19962;-69
2023/04/27 08:49:08;;;;;;;;;;;;;;;9.48;62.80;102040.19;5066293;28;19916;-69
2023/04/27 08:51:34;;;;;;;;;;;;;;;9.58;63.25;102046.38;5067526;28;19935;-69
2023/04/27 08:53:59;;;;;;;;;;;;;;;9.61;63.03;102040.81;5062949;28;19920;-69
2023/04/27 08:56:26;;;;;;;;;;;;;;;9.67;62.70;102043.91;5065435;28;20015;-69
2023/04/27 08:58:52;;;;;;;;;;;;;;;9.78;62.27;102051.75;5054600;28;19916;-69
2023/04/27 09:01:17;;;;;;;;;;;;;;;9.97;62.12;102038.53;5067571;28;19937;-70
2023/04/27 09:03:45;;;;;;;;;;;;;;;10.10;62.07;102044.41;5065212;28;20468;-69
2023/04/27 09:06:11;;;;;;;;;;;;;;;10.13;61.11;102040.66;5055976;28;19924;-70
2023/04/27 09:08:48;;;;;;;;;;;;;;;10.28;60.44;102041.94;5058786;28;19917;-69
2023/04/27 09:11:14;;;;;;;;;;;;;;;10.41;59.46;102045.16;5063357;28;20691;-69
2023/04/27 09:13:41;;;;;;;;;;;;;;;10.43;58.27;102045.03;5052944;28;19920;-69
2023/04/27 09:16:06;;;;;;;;;;;;;;;10.57;57.99;102046.41;5066335;28;20372;-70
2023/04/27 09:18:34;;;;;;;;;;;;;;;10.64;57.35;102047.50;5065159;28;19924;-69
2023/04/27 09:20:59;;;;;;;;;;;;;;;10.78;57.44;102047.09;5059676;28;19921;-69
2023/04/27 09:23:35;;;;;;;;;;;;;;;10.94;57.68;102052.63;5062918;28;20038;-69
2023/04/27 09:26:02;;;;;;;;;;;;;;;11.05;56.87;102046.34;5061186;28;20294;-70
2023/04/27 09:28:28;;;;;;;;;;;;;;;11.18;56.29;102042.38;5063975;28;19924;-70
2023/04/27 09:30:54;;;;;;;;;;;;;;;11.22;55.39;102042.91;5067615;28;19916;-70
2023/04/27 09:33:24;;;;;;;;;;;;;;;11.26;54.15;102049.63;5065362;28;19973;-70
2023/04/27 09:35:49;;;;;;;;;;;;;;;11.26;55.35;102044.28;5062943;28;20013;-70
2023/04/27 09:38:15;;;;;;;;;;;;;;;11.15;53.41;102036.50;5067958;28;19975;-70
2023/04/27 09:40:41;;;;;;;;;;;;;;;11.26;53.77;102031.00;5065807;28;19924;-70
2023/04/27 09:43:06;;;;;;;;;;;;;;;11.38;52.64;102034.31;5066112;28;20401;-70
2023/04/27 09:45:32;;;;;;;;;;;;;;;11.39;53.10;102030.69;5067673;28;19927;-70
2023/04/27 09:47:57;;;;;;;;;;;;;;;11.27;52.26;102031.84;5064489;28;19991;-70
2023/04/27 09:50:22;;;;;;;;;;;;;;;11.30;53.15;102027.09;5057698;28;20051;-70
2023/04/27 09:52:48;;;;;;;;;;;;;;;11.29;52.26;102030.72;5066552;28;19920;-70
2023/04/27 09:55:18;;;;;;;;;;;;;;;11.30;52.66;102024.44;5064732;28;20417;-70
2023/04/27 09:58:02;;;;;;;;;;;;;;;11.32;52.04;102033.09;5060092;28;19917;-70
2023/04/27 10:00:36;;;;;;;;;;;;;;;11.35;51.32;102032.81;5059108;28;19912;-70
2023/04/27 10:03:06;;;;;;;;;;;;;;;11.43;51.97;102027.56;5058985;28;20282;-70
2023/04/27 10:05:37;;;;;;;;;;;;;;;11.45;52.05;102022.94;5069663;28;19925;-70
2023/04/27 10:08:03;;;;;;;;;;;;;;;11.59;52.42;102026.13;5070494;28;19917;-70
2023/04/27 10:10:28;;;;;;;;;;;;;;;11.67;52.11;102004.91;5069897;28;20221;-70
2023/04/27 10:12:54;;;;;;;;;;;;;;;11.76;50.82;102018.16;5067466;28;20429;-70
2023/04/27 10:15:24;;;;;;;;;;;;;;;11.79;50.67;102017.06;5064732;28;19967;-70
2023/04/27 10:17:51;;;;;;;;;;;;;;;11.75;51.17;102024.47;5063447;28;19916;-70
2023/04/27 10:20:27;;;;;;;;;;;;;;;11.79;50.37;102025.03;5066541;28;19958;-70
2023/04/27 10:22:52;;;;;;;;;;;;;;;11.99;50.84;102023.09;5066093;28;20027;-71
2023/04/27 10:25:20;;;;;;;;;;;;;;;12.07;50.04;102018.69;5063313;28;19970;-70
2023/04/27 10:27:58;;;;;;;;;;;;;;;12.18;50.37;102030.94;5060877;28;20373;-70
2023/04/27 10:30:25;;;;;;;;;;;;;;;12.36;50.58;102023.78;5071920;28;19923;-69
2023/04/27 10:32:50;;;;;;;;;;;;;;;12.41;49.62;102013.50;5070423;28;19916;-70
2023/04/27 10:35:16;;;;;;;;;;;;;;;12.52;49.05;102014.25;5060897;28;19927;-71
2023/04/27 10:37:41;;;;;;;;;;;;;;;12.60;49.55;102006.31;5066607;28;19917;-70
2023/04/27 10:40:09;;;;;;;;;;;;;;;12.62;49.52;102018.50;5057229;28;20014;-70
2023/04/27 10:42:34;;;;;;;;;;;;;;;12.64;48.74;102018.34;5065179;28;20002;-69
2023/04/27 10:44:59;;;;;;;;;;;;;;;12.70;47.79;102010.56;5063613;28;20012;-70
2023/04/27 10:47:34;;;;;;;;;;;;;;;12.87;47.85;102008.00;5068323;28;20657;-70
2023/04/27 10:50:00;;;;;;;;;;;;;;;12.89;47.57;102006.03;5064026;28;20298;-69
2023/04/27 10:52:25;;;;;;;;;;;;;;;12.92;47.88;102001.22;5061705;28;19927;-69
2023/04/27 10:54:50;;;;;;;;;;;;;;;12.88;47.25;102004.34;5067683;28;19917;-69
2023/04/27 10:57:15;;;;;;;;;;;;;;;12.94;46.89;102001.88;5062522;28;19916;-69
2023/04/27 10:59:51;;;;;;;;;;;;;;;13.05;46.89;102003.47;5069774;28;20011;-69
2023/04/27 11:02:24;;;;;;;;;;;;;;;13.01;46.45;101999.44;5064769;28;20305;-69
2023/04/27 11:04:49;;;;;;;;;;;;;;;13.02;46.64;101991.28;5069994;28;19916;-69
2023/04/27 11:07:22;;;;;;;;;;;;;;;13.14;46.70;101991.84;5069758;28;19932;-69
2023/04/27 11:09:47;;;;;;;;;;;;;;;13.32;46.93;101987.31;5069594;28;19916;-69
2023/04/27 11:12:13;;;;;;;;;;;;;;;13.40;45.64;101985.66;5070217;28;19931;-69
2023/04/27 11:14:38;;;;;;;;;;;;;;;13.38;45.58;101980.47;5070049;28;19952;-69
2023/04/27 11:17:04;;;;;;;;;;;;;;;13.27;45.74;101980.75;5068125;28;19971;-69
2023/04/27 11:19:29;;;;;;;;;;;;;;;13.22;46.37;101978.56;5070203;28;19920;-69
2023/04/27 11:22:02;;;;;;;;;;;;;;;13.18;45.64;101976.38;5058031;28;19923;-69
2023/04/27 11:24:27;;;;;;;;;;;;;;;13.08;46.36;101965.81;5064624;28;19912;-69
2023/04/27 11:26:52;;;;;;;;;;;;;;;13.10;45.87;101955.81;5070356;28;20003;-69
2023/04/27 11:29:18;;;;;;;;;;;;;;;13.30;45.72;101961.78;5060578;28;19923;-69
2023/04/27 11:31:47;;;;;;;;;;;;;;;13.42;44.84;101965.81;5067304;28;20016;-69
2023/04/27 11:34:20;;;;;;;;;;;;;;;13.61;44.89;101962.88;5068720;28;20385;-69
2023/04/27 11:36:59;;;;;;;;;;;;;;;13.68;44.56;101963.06;5069582;28;19919;-69
2023/04/27 11:39:25;;;;;;;;;;;;;;;13.72;44.98;101956.38;5067038;28;19925;-69
2023/04/27 11:41:50;;;;;;;;;;;;;;;13.80;44.56;101952.88;5070893;28;20011;-69
2023/04/27 11:44:16;;;;;;;;;;;;;;;14.00;43.96;101953.44;5062758;28;20008;-69
2023/04/27 11:46:43;;;;;;;;;;;;;;;14.16;44.35;101951.59;5071848;28;19912;-69
2023/04/27 11:49:08;;;;;;;;;;;;;;;14.21;42.87;101951.09;5068645;28;19916;-69
2023/04/27 11:51:34;;;;;;;;;;;;;;;14.14;42.64;101947.41;5067985;28;19920;-69
2023/04/27 11:54:04;;;;;;;;;;;;;;;14.08;41.83;101958.75;5064892;28;19928;-69
2023/04/27 11:56:33;;;;;;;;;;;;;;;14.06;41.92;101955.44;5064438;28;20393;-69
2023/04/27 11:58:58;;;;;;;;;;;;;;;14.14;41.99;101950.09;5069654;28;19916;-69
2023/04/27 12:01:23;;;;;;;;;;;;;;;14.26;42.71;101948.75;5066434;28;19999;-69
2023/04/27 12:03:48;;;;;;;;;;;;;;;14.22;42.44;101945.59;5062355;28;20309;-69
2023/04/27 12:06:13;;;;;;;;;;;;;;;14.30;42.85;101944.75;5060163;28;20356;-69
2023/04/27 12:08:39;;;;;;;;;;;;;;;14.25;43.13;101947.09;5063538;28;19960;-69
2023/04/27 12:11:04;;;;;;;;;;;;;;;14.08;42.03;101938.22;5067413;28;19917;-69
2023/04/27 12:13:29;;;;;;;;;;;;;;;14.19;43.22;101937.91;5067548;28;19931;-69
2023/04/27 12:15:55;;;;;;;;;;;;;;;14.18;43.22;101936.25;5069046;28;20391;-69
2023/04/27 12:18:20;;;;;;;;;;;;;;;14.29;43.94;101939.56;5067646;28;19995;-69
2023/04/27 12:20:45;;;;;;;;;;;;;;;14.32;42.55;101937.41;5070125;28;19913;-69
2023/04/27 12:23:11;;;;;;;;;;;;;;;14.57;42.72;101935.56;5061763;28;19927;-69
2023/04/27 12:25:36;;;;;;;;;;;;;;;14.80;41.08;101930.34;5067941;28;19986;-69
2023/04/27 12:28:01;;;;;;;;;;;;;;;14.95;42.03;101923.25;5066600;28;19920;-69
2023/04/27 12:30:26;;;;;;;;;;;;;;;15.19;41.26;101919.66;5070001;28;19913;-69
2023/04/27 12:32:52;;;;;;;;;;;;;;;15.35;42.27;101919.59;5068020;28;20248;-69
2023/04/27 12:35:17;;;;;;;;;;;;;;;15.43;41.74;101916.03;5069264;28;19913;-69
2023/04/27 12:37:42;;;;;;;;;;;;;;;15.54;41.39;101922.81;5067734;28;21345;-69
2023/04/27 12:40:07;;;;;;;;;;;;;;;15.69;41.06;101916.56;5069109;28;20003;-69
2023/04/27 12:42:33;;;;;;;;;;;;;;;15.87;41.02;101913.56;5059969;28;20574;-69
2023/04/27 12:44:58;;;;;;;;;;;;;;;16.04;41.30;101914.28;5066270;28;20286;-69
2023/04/27 12:47:23;;;;;;;;;;;;;;;16.11;40.12;101904.50;5066515;28;20550;-69
2023/04/27 12:49:49;;;;;;;;;;;;;;;16.18;39.69;101905.44;5069493;28;20007;-69
2023/04/27 12:52:15;;;;;;;;;;;;;;;16.17;39.28;101908.31;5067582;28;19925;-69
2023/04/27 12:54:40;;;;;;;;;;;;;;;16.13;38.07;101917.72;5066393;28;19916;-69
2023/04/27 12:57:05;;;;;;;;;;;;;;;16.27;38.74;101912.41;5067465;28;20282;-69
2023/04/27 12:59:31;;;;;;;;;;;;;;;16.53;38.32;101898.59;5069244;28;19913;-69